createdAt,value
2024-03-09T00:00:36.238Z,1.950
2024-03-09T00:01:29.086Z,2.000
2024-03-09T00:02:26.475Z,1.800
2024-03-09T00:03:33.129Z,2.000
2024-03-09T00:04:24.397Z,1.750
2024-03-09T00:05:39.156Z,1.700
2024-03-09T00:06:29.588Z,1.600
2024-03-09T00:07:42.520Z,1.650
2024-03-09T00:08:46.882Z,1.600
2024-03-09T00:09:30.679Z,1.600
2024-03-09T00:10:43.341Z,1.400
2024-03-09T00:13:09.117Z,1.500
2024-03-09T00:14:13.003Z,1.400
2024-03-09T00:14:38.757Z,1.500
2024-03-09T00:15:40.699Z,1.200
2024-03-09T00:16:35.774Z,1.500
2024-03-09T00:17:27.825Z,1.500
2024-03-09T00:18:46.109Z,1.400
2024-03-09T00:19:28.514Z,1.450
2024-03-09T00:20:28.958Z,1.200
2024-03-09T00:21:49.405Z,1.100
2024-03-09T00:22:42.849Z,1.400
2024-03-09T00:23:35.902Z,1.200
2024-03-09T00:24:25.309Z,1.300
2024-03-09T00:25:37.936Z,1.200
2024-03-09T00:26:31.692Z,1.200
2024-03-09T00:27:24.828Z,1.300
2024-03-09T00:28:56.179Z,1.350
2024-03-09T00:29:45.359Z,1.200
2024-03-09T00:30:40.285Z,1.200
2024-03-09T00:31:27.282Z,1.000
2024-03-09T00:32:23.447Z,1.100
2024-03-09T00:33:32.499Z,1.100
2024-03-09T00:34:27.170Z,1.150
2024-03-09T00:35:21.069Z,1.150
2024-03-09T00:36:49.984Z,1.100
2024-03-09T00:37:43.900Z,1.200
2024-03-09T00:38:30.852Z,1.200
2024-03-09T00:39:27.580Z,1.200
2024-03-09T00:40:20.451Z,1.100
2024-03-09T00:41:29.629Z,1.200
2024-03-09T00:42:24.236Z,1.100
2024-03-09T00:43:56.207Z,1.200
2024-03-09T00:44:47.562Z,1.100
2024-03-09T00:45:33.503Z,1.200
2024-03-09T00:46:20.334Z,1.200
2024-03-09T00:47:24.662Z,1.300
2024-03-09T00:48:33.727Z,1.200
2024-03-09T00:49:27.708Z,1.200
2024-03-09T00:50:23.190Z,1.150
2024-03-09T00:51:51.096Z,1.200
2024-03-09T00:52:36.003Z,1.200
2024-03-09T00:53:24.075Z,1.200
2024-03-09T00:54:29.613Z,1.100
2024-03-09T00:55:22.840Z,1.150
2024-03-09T00:56:30.959Z,1.100
2024-03-09T00:57:23.939Z,1.100
2024-03-09T00:58:54.646Z,1.050
2024-03-09T00:59:39.540Z,1.000
2024-03-09T01:00:26.121Z,1.200
2024-03-09T01:01:34.675Z,1.200
2024-03-09T01:02:27.551Z,1.100
2024-03-09T01:03:35.990Z,1.200
2024-03-09T01:04:20.226Z,1.100
2024-03-09T01:05:21.577Z,1.350
2024-03-09T01:06:43.740Z,1.200
2024-03-09T01:07:31.072Z,1.300
2024-03-09T01:08:38.031Z,1.300
2024-03-09T01:09:32.803Z,1.100
2024-03-09T01:10:26.032Z,1.200
2024-03-09T01:11:23.235Z,1.500
2024-03-09T01:12:25.740Z,1.400
2024-03-09T01:13:45.797Z,1.150
2024-03-09T01:14:32.761Z,1.300
2024-03-09T01:15:41.240Z,1.250
2024-03-09T01:16:35.582Z,1.100
2024-03-09T01:17:29.541Z,1.200
2024-03-09T01:18:23.386Z,1.200
2024-03-09T01:19:29.791Z,1.200
2024-03-09T01:20:22.080Z,1.250
2024-03-09T01:21:35.274Z,1.300
2024-03-09T01:22:21.728Z,1.200
2024-03-09T01:23:40.257Z,1.250
2024-03-09T01:24:33.291Z,1.500
2024-03-09T01:25:27.842Z,1.100
2024-03-09T01:26:34.275Z,1.400
2024-03-09T01:27:26.711Z,1.800
2024-03-09T01:28:38.798Z,2.200
2024-03-09T01:29:24.239Z,2.200
2024-03-09T01:30:44.622Z,2.500
2024-03-09T01:31:37.655Z,3.100
2024-03-09T01:32:30.739Z,3.300
2024-03-09T01:33:23.670Z,3.400
2024-03-09T01:34:29.876Z,3.600
2024-03-09T01:35:22.814Z,3.100
2024-03-09T01:36:27.716Z,2.700
2024-03-09T01:37:48.473Z,2.650
2024-03-09T01:38:41.104Z,2.600
2024-03-09T01:39:36.074Z,2.500
2024-03-09T01:40:24.658Z,3.300
2024-03-09T01:41:33.644Z,2.900
2024-03-09T01:42:28.462Z,3.400
2024-03-09T01:43:19.489Z,3.550
2024-03-09T01:44:52.724Z,4.000
2024-03-09T01:45:45.713Z,4.400
2024-03-09T01:46:39.624Z,4.600
2024-03-09T01:47:29.044Z,4.800
2024-03-09T01:48:23.573Z,4.700
2024-03-09T01:49:34.208Z,4.750
2024-03-09T01:50:23.656Z,5.100
2024-03-09T01:51:20.203Z,4.900
2024-03-09T01:52:50.395Z,4.100
2024-03-09T01:53:43.313Z,4.600
2024-03-09T01:54:30.599Z,4.200
2024-03-09T01:55:27.168Z,4.000
2024-03-09T01:56:20.771Z,4.050
2024-03-09T01:57:28.333Z,4.000
2024-03-09T01:58:23.312Z,3.800
2024-03-09T01:59:53.785Z,4.000
2024-03-09T02:00:46.855Z,4.900
2024-03-09T02:01:34.892Z,3.500
2024-03-09T02:02:35.590Z,4.700
2024-03-09T02:03:24.803Z,4.400
2024-03-09T02:04:32.126Z,4.200
2024-03-09T02:05:34.188Z,4.300
2024-03-09T02:13:42.724Z,4.300
2024-03-09T02:15:16.097Z,4.200
2024-03-09T02:16:17.550Z,4.700
2024-03-09T02:16:30.112Z,5.350
2024-03-09T02:17:48.190Z,5.700
2024-03-09T02:18:48.053Z,5.200
2024-03-09T02:19:38.390Z,4.800
2024-03-09T02:20:20.802Z,4.900
2024-03-09T02:22:04.126Z,4.800
2024-03-09T02:22:49.697Z,5.400
2024-03-09T02:23:36.752Z,5.100
2024-03-09T02:24:47.780Z,4.700
2024-03-09T02:26:06.326Z,5.100
2024-03-09T02:26:47.019Z,4.350
2024-03-09T02:27:27.733Z,5.600
2024-03-09T02:28:30.594Z,6.100
2024-03-09T02:29:52.222Z,4.450
2024-03-09T02:36:33.043Z,5.000
2024-03-09T02:37:36.513Z,5.600
2024-03-09T02:38:21.169Z,4.800
2024-03-09T02:39:40.335Z,5.200
2024-03-09T02:40:34.739Z,5.600
2024-03-09T02:41:26.664Z,4.500
2024-03-09T02:42:31.181Z,5.200
2024-03-09T02:43:23.874Z,4.600
2024-03-09T02:44:57.945Z,5.200
2024-03-09T02:45:23.268Z,5.400
2024-03-09T02:46:43.899Z,5.600
2024-03-09T02:47:37.818Z,4.800
2024-03-09T02:48:32.844Z,4.200
2024-03-09T02:49:22.646Z,4.800
2024-03-09T02:50:28.365Z,4.900
2024-03-09T02:51:20.822Z,4.900
2024-03-09T02:52:26.555Z,5.400
2024-03-09T02:53:47.365Z,4.900
2024-03-09T02:54:41.397Z,4.200
2024-03-09T02:55:34.466Z,4.600
2024-03-09T02:56:23.233Z,4.700
2024-03-09T02:57:31.531Z,4.400
2024-03-09T02:58:25.768Z,4.900
2024-03-09T02:59:32.125Z,5.200
2024-03-09T03:00:53.029Z,4.800
2024-03-09T03:01:45.845Z,5.500
2024-03-09T03:02:38.899Z,5.100
2024-03-09T03:03:26.091Z,5.200
2024-03-09T03:04:23.282Z,5.000
2024-03-09T03:05:28.640Z,4.900
2024-03-09T03:06:22.646Z,4.200
2024-03-09T03:07:19.375Z,4.850
2024-03-09T03:08:49.498Z,4.700
2024-03-09T03:09:42.457Z,4.000
2024-03-09T03:10:29.695Z,4.200
2024-03-09T03:11:27.409Z,4.900
2024-03-09T03:12:21.002Z,4.300
2024-03-09T03:13:25.875Z,4.000
2024-03-09T03:14:22.312Z,4.300
2024-03-09T03:15:54.857Z,4.150
2024-03-09T03:16:47.890Z,4.000
2024-03-09T03:17:41.129Z,4.300
2024-03-09T03:18:31.418Z,4.500
2024-03-09T03:19:24.389Z,4.050
2024-03-09T03:20:29.993Z,3.800
2024-03-09T03:21:26.089Z,3.600
2024-03-09T03:23:01.632Z,4.150
2024-03-09T03:23:47.581Z,4.000
2024-03-09T03:24:35.339Z,3.800
2024-03-09T03:25:21.504Z,3.600
2024-03-09T03:26:28.520Z,4.200
2024-03-09T03:27:23.564Z,4.200
2024-03-09T03:28:26.484Z,3.900
2024-03-09T03:29:20.235Z,4.300
2024-03-09T03:30:50.621Z,3.950
2024-03-09T03:31:38.122Z,3.800
2024-03-09T03:32:25.782Z,3.800
2024-03-09T03:33:33.120Z,3.700
2024-03-09T03:34:29.529Z,3.800
2024-03-09T03:35:31.164Z,3.900
2024-03-09T03:36:23.920Z,3.900
2024-03-09T03:37:54.568Z,3.900
2024-03-09T03:38:40.601Z,3.800
2024-03-09T03:39:45.811Z,3.600
2024-03-09T03:40:38.700Z,3.600
2024-03-09T03:41:31.426Z,3.700
2024-03-09T03:42:24.918Z,3.400
2024-03-09T03:43:22.213Z,3.500
2024-03-09T03:44:22.039Z,3.000
2024-03-09T03:45:44.107Z,2.950
2024-03-09T03:46:31.082Z,2.700
2024-03-09T03:47:43.007Z,2.700
2024-03-09T03:48:35.866Z,2.500
2024-03-09T03:49:28.935Z,2.000
2024-03-09T03:50:24.682Z,2.300
2024-03-09T03:51:24.763Z,2.200
2024-03-09T03:52:46.778Z,2.050
2024-03-09T03:53:33.108Z,2.000
2024-03-09T03:54:19.398Z,1.950
2024-03-09T03:55:40.695Z,2.100
2024-03-09T03:56:33.501Z,2.100
2024-03-09T03:57:28.450Z,2.100
2024-03-09T03:58:29.036Z,1.800
2024-03-09T03:59:21.337Z,1.750
2024-03-09T04:00:37.228Z,1.700
2024-03-09T04:01:51.129Z,1.800
2024-03-09T04:02:44.010Z,1.650
2024-03-09T04:03:36.992Z,1.600
2024-03-09T04:04:32.118Z,1.200
2024-03-09T04:05:21.933Z,1.500
2024-03-09T04:06:25.536Z,1.350
2024-03-09T04:07:40.035Z,1.300
2024-03-09T04:08:25.062Z,1.500
2024-03-09T04:09:48.586Z,1.400
2024-03-09T04:10:41.613Z,1.100
2024-03-09T04:11:35.006Z,1.100
2024-03-09T04:12:27.427Z,1.100
2024-03-09T04:13:31.171Z,1.000
2024-03-09T04:14:22.589Z,1.150
2024-03-09T04:15:28.288Z,0.900
2024-03-09T04:16:52.124Z,1.100
2024-03-09T04:17:45.149Z,1.100
2024-03-09T04:18:38.865Z,1.200
2024-03-09T04:19:26.020Z,1.100
2024-03-09T04:20:23.224Z,1.100
2024-03-09T04:21:26.786Z,0.950
2024-03-09T04:22:20.932Z,1.000
2024-03-09T04:23:56.715Z,1.100
2024-03-09T04:24:49.575Z,0.800
2024-03-09T04:25:42.595Z,0.900
2024-03-09T04:26:27.457Z,1.000
2024-03-09T04:27:28.083Z,1.000
2024-03-09T04:28:20.390Z,1.050
2024-03-09T04:29:25.960Z,0.900
2024-03-09T04:30:21.649Z,0.900
2024-03-09T04:31:54.274Z,0.900
2024-03-09T04:32:42.729Z,1.000
2024-03-09T04:33:31.025Z,1.000
2024-03-09T04:34:32.961Z,0.800
2024-03-09T04:35:24.507Z,0.750
2024-03-09T04:36:27.596Z,0.700
2024-03-09T04:37:20.964Z,0.900
2024-03-09T04:39:01.547Z,0.800
2024-03-09T04:39:46.658Z,0.700
2024-03-09T04:40:33.869Z,0.800
2024-03-09T04:41:21.773Z,0.600
2024-03-09T04:42:28.704Z,0.800
2024-03-09T04:43:23.439Z,0.650
2024-03-09T04:44:30.725Z,0.500
2024-03-09T04:46:03.326Z,0.500
2024-03-09T04:46:50.279Z,0.600
2024-03-09T04:47:37.222Z,0.500
2024-03-09T04:48:24.097Z,0.600
2024-03-09T04:49:33.068Z,0.500
2024-03-09T04:50:28.428Z,0.550
2024-03-09T04:51:30.261Z,0.600
2024-03-09T04:52:22.486Z,0.600
2024-03-09T04:53:52.826Z,0.600
2024-03-09T04:54:41.047Z,0.600
2024-03-09T04:55:26.806Z,0.600
2024-03-09T04:56:38.447Z,0.600
2024-03-09T04:57:31.451Z,0.600
2024-03-09T04:58:25.175Z,0.500
2024-03-09T04:59:21.339Z,0.500
2024-03-09T05:00:56.164Z,0.500
2024-03-09T05:01:43.160Z,0.550
2024-03-09T05:02:30.204Z,0.500
2024-03-09T05:03:41.170Z,0.600
2024-03-09T05:04:36.122Z,0.500
2024-03-09T05:05:29.114Z,0.600
2024-03-09T05:06:24.916Z,0.600
2024-03-09T05:07:22.391Z,0.500
2024-03-09T05:08:46.067Z,0.550
2024-03-09T05:09:33.708Z,0.500
2024-03-09T05:10:46.813Z,0.450
2024-03-09T05:11:39.630Z,0.600
2024-03-09T05:12:33.445Z,0.500
2024-03-09T05:13:27.400Z,0.600
2024-03-09T05:14:26.487Z,0.700
2024-03-09T05:15:19.476Z,0.750
2024-03-09T05:16:36.846Z,0.700
2024-03-09T05:17:21.151Z,0.800
2024-03-09T05:18:44.979Z,0.650
2024-03-09T05:19:37.071Z,0.900
2024-03-09T05:20:30.987Z,0.800
2024-03-09T05:21:21.763Z,0.800
2024-03-09T05:22:23.574Z,1.000
2024-03-09T05:23:38.768Z,1.100
2024-03-09T05:24:24.146Z,0.900
2024-03-09T05:25:49.023Z,0.900
2024-03-09T05:26:41.673Z,0.900
2024-03-09T05:27:35.519Z,0.900
2024-03-09T05:28:21.684Z,0.900
2024-03-09T05:29:27.711Z,0.900
2024-03-09T05:30:21.412Z,0.850
2024-03-09T05:31:27.314Z,1.000
2024-03-09T05:32:53.191Z,0.850
2024-03-09T05:33:46.731Z,0.900
2024-03-09T05:34:39.965Z,0.800
2024-03-09T05:35:24.827Z,1.000
2024-03-09T05:36:23.733Z,0.900
2024-03-09T05:37:26.687Z,0.950
2024-03-09T05:38:31.858Z,1.000
2024-03-09T05:39:56.620Z,1.050
2024-03-09T05:40:49.904Z,1.100
2024-03-09T05:41:42.535Z,1.200
2024-03-09T05:42:26.637Z,1.100
2024-03-09T05:43:27.915Z,1.200
2024-03-09T05:44:20.139Z,1.050
2024-03-09T05:45:23.329Z,1.100
2024-03-09T05:46:20.056Z,1.000
2024-03-09T05:47:56.146Z,1.250
2024-03-09T05:48:43.176Z,1.200
2024-03-09T05:49:30.536Z,1.300
2024-03-09T05:50:31.564Z,1.300
2024-03-09T05:51:25.925Z,1.200
2024-03-09T05:52:25.600Z,1.200
2024-03-09T05:53:23.982Z,1.200
2024-03-09T05:55:00.746Z,1.300
2024-03-09T05:55:45.783Z,1.100
2024-03-09T05:56:32.698Z,1.200
2024-03-09T05:57:35.609Z,1.200
2024-03-09T05:58:28.872Z,1.300
2024-03-09T05:59:24.038Z,1.250
2024-03-09T06:00:26.777Z,1.100
2024-03-09T06:02:08.990Z,1.100
2024-03-09T06:02:49.289Z,1.100
2024-03-09T06:03:36.170Z,1.100
2024-03-09T06:04:23.481Z,1.100
2024-03-09T06:05:34.095Z,1.200
2024-03-09T06:06:27.110Z,1.150
2024-03-09T06:07:29.351Z,1.100
2024-03-09T06:08:19.924Z,1.200
2024-03-09T06:09:51.980Z,1.000
2024-03-09T06:10:44.053Z,1.100
2024-03-09T06:11:25.757Z,1.000
2024-03-09T06:12:37.279Z,1.100
2024-03-09T06:13:31.727Z,1.000
2024-03-09T06:14:24.576Z,1.100
2024-03-09T06:15:24.516Z,1.100
2024-03-09T06:16:55.454Z,1.000
2024-03-09T06:17:41.323Z,1.000
2024-03-09T06:18:29.301Z,1.100
2024-03-09T06:19:43.218Z,1.000
2024-03-09T06:20:36.588Z,1.100
2024-03-09T06:21:29.096Z,0.900
2024-03-09T06:22:24.065Z,1.100
2024-03-09T06:23:21.455Z,0.900
2024-03-09T06:24:44.901Z,1.000
2024-03-09T06:25:32.216Z,1.050
2024-03-09T06:26:45.403Z,1.000
2024-03-09T06:27:39.613Z,1.050
2024-03-09T06:28:34.265Z,1.000
2024-03-09T06:29:26.469Z,1.000
2024-03-09T06:30:27.949Z,1.100
2024-03-09T06:31:47.626Z,1.050
2024-03-09T06:32:35.685Z,0.900
2024-03-09T06:33:21.301Z,1.000
2024-03-09T06:34:44.254Z,1.050
2024-03-09T06:35:37.379Z,1.100
2024-03-09T06:36:30.740Z,1.000
2024-03-09T06:37:21.970Z,1.200
2024-03-09T06:38:21.717Z,1.100
2024-03-09T06:39:39.096Z,1.200
2024-03-09T06:40:24.069Z,1.100
2024-03-09T06:41:48.646Z,1.000
2024-03-09T06:42:42.304Z,0.900
2024-03-09T06:43:33.945Z,0.900
2024-03-09T06:44:26.048Z,1.000
2024-03-09T06:45:26.297Z,1.100
2024-03-09T06:46:39.232Z,0.900
2024-03-09T06:47:26.459Z,0.850
2024-03-09T06:48:52.260Z,0.800
2024-03-09T06:49:45.351Z,1.900
2024-03-09T06:50:39.065Z,1.200
2024-03-09T06:51:23.964Z,0.900
2024-03-09T06:52:24.481Z,0.700
2024-03-09T06:53:22.372Z,0.700
2024-03-09T06:54:29.413Z,0.700
2024-03-09T06:55:56.850Z,0.750
2024-03-09T06:56:49.687Z,2.800
2024-03-09T06:57:37.341Z,2.400
2024-03-09T06:58:28.064Z,2.400
2024-03-09T06:59:27.361Z,0.700
2024-03-09T07:00:21.030Z,0.750
2024-03-09T07:01:21.947Z,0.700
2024-03-09T07:02:19.314Z,0.600
2024-03-09T07:03:22.177Z,0.600
2024-03-09T07:04:34.772Z,0.650
2024-03-09T07:05:29.976Z,0.600
2024-03-09T07:06:32.192Z,0.500
2024-03-09T07:07:24.602Z,0.500
2024-03-09T07:08:25.871Z,0.600
2024-03-09T07:09:22.345Z,0.500
2024-03-09T07:10:22.730Z,0.700
2024-03-09T07:11:44.895Z,0.700
2024-03-09T07:12:31.925Z,0.500
2024-03-09T07:13:38.150Z,0.500
2024-03-09T07:14:20.701Z,0.550
2024-03-09T07:15:22.557Z,0.600
2024-03-09T07:16:21.997Z,0.500
2024-03-09T07:18:02.763Z,0.600
2024-03-09T07:18:55.371Z,0.650
2024-03-09T07:19:30.335Z,0.400
2024-03-09T07:20:20.388Z,0.500
2024-03-09T07:21:22.196Z,0.650
2024-03-09T07:22:27.254Z,0.500
2024-03-09T07:23:24.431Z,0.400
2024-03-09T07:24:22.612Z,0.600
2024-03-09T07:25:34.720Z,0.600
2024-03-09T07:26:38.647Z,0.600
2024-03-09T07:27:23.507Z,0.400
2024-03-09T07:28:39.236Z,0.500
2024-03-09T07:29:31.768Z,0.500
2024-03-09T07:30:26.021Z,0.600
2024-03-09T07:31:22.723Z,0.500
2024-03-09T07:32:47.700Z,0.500
2024-03-09T07:33:40.460Z,0.400
2024-03-09T07:34:29.386Z,0.500
2024-03-09T07:35:20.998Z,0.400
2024-03-09T07:36:30.188Z,0.400
2024-03-09T07:37:29.336Z,0.350
2024-03-09T07:38:25.624Z,0.500
2024-03-09T07:39:57.196Z,0.500
2024-03-09T07:40:30.192Z,0.500
2024-03-09T07:41:25.240Z,0.400
2024-03-09T07:42:20.509Z,0.400
2024-03-09T07:43:36.359Z,0.500
2024-03-09T07:44:28.138Z,0.500
2024-03-09T07:45:24.303Z,0.500
2024-03-09T07:46:22.625Z,0.450
2024-03-09T07:47:29.803Z,0.500
2024-03-09T07:48:25.441Z,0.400
2024-03-09T07:49:21.785Z,0.400
2024-03-09T07:50:31.692Z,0.500
2024-03-09T07:51:36.589Z,1.000
2024-03-09T07:52:22.281Z,0.550
2024-03-09T07:53:21.619Z,0.700
2024-03-09T07:54:20.486Z,0.800
2024-03-09T07:55:40.398Z,0.450
2024-03-09T07:56:24.586Z,0.500
2024-03-09T07:57:33.422Z,0.450
2024-03-09T07:58:27.777Z,0.600
2024-03-09T07:59:23.439Z,0.600
2024-03-09T08:00:27.119Z,0.500
2024-03-09T08:01:24.399Z,0.500
2024-03-09T08:02:26.158Z,0.450
2024-03-09T08:03:20.364Z,0.550
2024-03-09T08:04:33.492Z,0.400
2024-03-09T08:05:26.779Z,0.400
2024-03-09T08:06:24.206Z,0.500
2024-03-09T08:07:20.616Z,0.450
2024-03-09T08:08:23.950Z,0.400
2024-03-09T08:09:20.880Z,0.450
2024-03-09T08:10:23.297Z,0.400
2024-03-09T08:11:31.958Z,0.500
2024-03-09T08:12:26.745Z,0.450
2024-03-09T08:13:41.077Z,0.400
2024-03-09T08:14:23.725Z,0.400
2024-03-09T08:15:32.843Z,0.600
2024-03-09T08:16:21.999Z,0.450
2024-03-09T08:17:20.984Z,0.600
2024-03-09T08:18:30.599Z,0.600
2024-03-09T08:19:29.129Z,0.600
2024-03-09T08:20:23.546Z,0.400
2024-03-09T08:21:27.346Z,0.600
2024-03-09T08:22:29.342Z,0.300
2024-03-09T08:23:28.576Z,0.500
2024-03-09T08:24:22.413Z,0.400
2024-03-09T08:25:23.316Z,0.450
2024-03-09T08:26:26.941Z,0.550
2024-03-09T08:27:24.527Z,0.600
2024-03-09T08:28:35.339Z,0.450
2024-03-09T08:29:28.570Z,0.500
2024-03-09T08:30:24.652Z,0.450
2024-03-09T08:31:21.708Z,0.500
2024-03-09T08:32:24.542Z,0.450
2024-03-09T08:33:28.159Z,0.400
2024-03-09T08:34:22.532Z,0.700
2024-03-09T08:35:47.921Z,0.600
2024-03-09T08:36:19.452Z,0.500
2024-03-09T08:37:24.905Z,0.400
2024-03-09T08:38:21.836Z,0.500
2024-03-09T08:39:22.612Z,0.550
2024-03-09T08:40:26.447Z,0.500
2024-03-09T08:41:22.501Z,0.400
2024-03-09T08:42:36.258Z,0.400
2024-03-09T08:43:25.245Z,0.350
2024-03-09T08:44:24.530Z,0.450
2024-03-09T08:45:21.889Z,0.500
2024-03-09T08:46:26.075Z,0.500
2024-03-09T08:47:19.715Z,0.500
2024-03-09T08:48:22.574Z,0.500
2024-03-09T08:49:34.601Z,0.450
2024-03-09T08:50:27.225Z,0.500
2024-03-09T08:51:25.402Z,0.500
2024-03-09T08:52:20.458Z,0.450
2024-03-09T08:53:27.014Z,0.600
2024-03-09T08:54:26.363Z,0.700
2024-03-09T08:55:22.640Z,0.500
2024-03-09T08:56:32.702Z,0.400
2024-03-09T08:57:28.720Z,0.500
2024-03-09T08:58:24.318Z,0.450
2024-03-09T08:59:23.299Z,0.500
2024-03-09T09:00:31.838Z,0.400
2024-03-09T09:01:28.012Z,0.400
2024-03-09T09:02:23.305Z,0.400
2024-03-09T09:03:33.524Z,0.500
2024-03-09T09:04:33.078Z,0.400
2024-03-09T09:05:24.863Z,0.400
2024-03-09T09:06:20.329Z,0.450
2024-03-09T09:07:30.680Z,0.300
2024-03-09T09:08:33.194Z,0.400
2024-03-09T09:09:25.469Z,0.400
2024-03-09T09:10:34.075Z,0.400
2024-03-09T09:11:28.795Z,0.600
2024-03-09T09:12:22.986Z,0.450
2024-03-09T09:13:21.327Z,0.450
2024-03-09T09:14:30.536Z,0.500
2024-03-09T09:15:30.916Z,0.350
2024-03-09T09:16:22.679Z,0.400
2024-03-09T09:17:22.862Z,0.550
2024-03-09T09:18:28.539Z,0.500
2024-03-09T09:19:40.726Z,0.450
2024-03-09T09:20:21.072Z,0.500
2024-03-09T09:21:32.901Z,0.500
2024-03-09T09:22:27.476Z,0.600
2024-03-09T09:23:24.343Z,0.400
2024-03-09T09:24:25.608Z,0.450
2024-03-09T09:25:31.116Z,0.400
2024-03-09T09:26:29.350Z,0.500
2024-03-09T09:27:34.331Z,0.400
2024-03-09T09:28:31.678Z,0.500
2024-03-09T09:29:26.602Z,0.500
2024-03-09T09:30:37.587Z,0.400
2024-03-09T09:31:29.364Z,0.300
2024-03-09T09:32:23.629Z,0.400
2024-03-09T09:33:24.729Z,0.350
2024-03-09T09:34:20.660Z,0.500
2024-03-09T09:35:31.396Z,0.750
2024-03-09T09:36:27.477Z,0.500
2024-03-09T09:37:26.379Z,0.550
2024-03-09T09:38:33.570Z,0.400
2024-03-09T09:39:30.300Z,0.400
2024-03-09T09:40:21.679Z,0.500
2024-03-09T09:41:36.540Z,0.350
2024-03-09T09:42:30.571Z,0.450
2024-03-09T09:43:28.311Z,0.400
2024-03-09T09:44:23.493Z,0.300
2024-03-09T09:45:37.647Z,0.400
2024-03-09T09:46:32.510Z,0.450
2024-03-09T09:47:26.244Z,0.400
2024-03-09T09:48:25.196Z,0.400
2024-03-09T09:49:31.871Z,0.450
2024-03-09T09:50:26.436Z,0.350
2024-03-09T09:51:24.181Z,0.400
2024-03-09T09:52:32.864Z,0.400
2024-03-09T09:53:28.389Z,0.400
2024-03-09T09:54:29.241Z,0.450
2024-03-09T09:55:21.366Z,0.500
2024-03-09T09:56:32.151Z,0.450
2024-03-09T09:57:26.628Z,0.450
2024-03-09T09:58:24.025Z,0.400
2024-03-09T09:59:21.784Z,0.450
2024-03-09T10:00:29.882Z,0.500
2024-03-09T10:01:25.217Z,0.500
2024-03-09T10:02:26.202Z,0.400
2024-03-09T10:03:31.684Z,0.550
2024-03-09T10:04:27.936Z,0.600
2024-03-09T10:05:23.992Z,0.450
2024-03-09T10:06:24.413Z,0.500
2024-03-09T10:07:30.759Z,0.400
2024-03-09T10:08:24.257Z,0.500
2024-03-09T10:09:21.702Z,0.500
2024-03-09T10:10:21.318Z,0.450
2024-03-09T10:11:29.897Z,0.400
2024-03-09T10:12:22.566Z,0.500
2024-03-09T10:13:27.531Z,0.600
2024-03-09T10:14:31.791Z,0.500
2024-03-09T10:15:24.897Z,0.650
2024-03-09T10:16:21.696Z,0.500
2024-03-09T10:17:26.389Z,0.500
2024-03-09T10:18:27.480Z,0.500
2024-03-09T10:19:23.811Z,0.400
2024-03-09T10:20:32.535Z,0.500
2024-03-09T10:21:31.086Z,0.550
2024-03-09T10:22:24.906Z,0.450
2024-03-09T10:23:23.490Z,0.400
2024-03-09T10:24:26.420Z,0.350
2024-03-09T10:25:24.395Z,0.600
2024-03-09T10:26:22.762Z,0.650
2024-03-09T10:27:39.185Z,0.500
2024-03-09T10:28:22.674Z,0.600
2024-03-09T10:29:24.710Z,0.550
2024-03-09T10:30:23.019Z,0.500
2024-03-09T10:31:35.550Z,0.450
2024-03-09T10:32:26.929Z,0.500
2024-03-09T10:33:19.658Z,0.500
2024-03-09T10:34:33.541Z,0.500
2024-03-09T10:35:23.322Z,0.500
2024-03-09T10:36:26.421Z,0.500
2024-03-09T10:37:20.653Z,0.400
2024-03-09T10:38:31.442Z,0.500
2024-03-09T10:39:27.024Z,0.600
2024-03-09T10:40:24.241Z,0.500
2024-03-09T10:41:33.415Z,0.600
2024-03-09T10:42:28.519Z,0.450
2024-03-09T10:43:24.624Z,0.500
2024-03-09T10:44:21.363Z,0.500
2024-03-09T10:45:31.104Z,0.500
2024-03-09T10:46:25.225Z,0.400
2024-03-09T10:47:23.256Z,0.400
2024-03-09T10:48:20.354Z,0.550
2024-03-09T10:49:29.599Z,0.300
2024-03-09T10:50:24.622Z,0.500
2024-03-09T10:51:24.802Z,0.600
2024-03-09T10:52:30.436Z,0.450
2024-03-09T10:53:24.454Z,0.600
2024-03-09T10:54:22.551Z,0.500
2024-03-09T10:55:24.006Z,0.450
2024-03-09T10:56:28.441Z,0.500
2024-03-09T10:57:19.625Z,0.600
2024-03-09T10:58:22.136Z,0.400
2024-03-09T10:59:32.053Z,0.500
2024-03-09T11:00:27.395Z,0.600
2024-03-09T11:01:22.518Z,0.700
2024-03-09T11:02:28.270Z,0.400
2024-03-09T11:03:24.163Z,0.400
2024-03-09T11:04:26.835Z,0.450
2024-03-09T11:05:23.552Z,0.600
2024-03-09T11:06:33.404Z,0.500
2024-03-09T11:07:27.866Z,0.500
2024-03-09T11:08:23.146Z,0.550
2024-03-09T11:09:34.133Z,0.550
2024-03-09T11:10:25.613Z,0.500
2024-03-09T11:11:25.467Z,0.600
2024-03-09T11:12:20.509Z,0.500
2024-03-09T11:13:32.152Z,0.500
2024-03-09T11:14:26.984Z,0.700
2024-03-09T11:15:23.906Z,0.500
2024-03-09T11:16:35.094Z,0.500
2024-03-09T11:17:29.979Z,0.500
2024-03-09T11:18:25.103Z,0.500
2024-03-09T11:19:20.398Z,0.500
2024-03-09T11:20:32.789Z,0.500
2024-03-09T11:21:26.719Z,0.550
2024-03-09T11:22:24.650Z,0.600
2024-03-09T11:23:33.822Z,0.550
2024-03-09T11:24:28.774Z,0.600
2024-03-09T11:25:28.792Z,0.500
2024-03-09T11:26:20.477Z,0.500
2024-03-09T11:27:31.805Z,0.500
2024-03-09T11:28:26.670Z,0.550
2024-03-09T11:29:25.425Z,0.600
2024-03-09T11:30:33.438Z,0.650
2024-03-09T11:31:30.881Z,0.400
2024-03-09T11:32:24.769Z,0.600
2024-03-09T11:33:25.727Z,0.550
2024-03-09T11:34:30.755Z,0.450
2024-03-09T11:35:27.804Z,0.500
2024-03-09T11:36:22.840Z,0.550
2024-03-09T11:37:32.680Z,0.500
2024-03-09T11:38:29.698Z,0.600
2024-03-09T11:39:24.804Z,0.500
2024-03-09T11:40:20.742Z,0.550
2024-03-09T11:41:21.700Z,0.550
2024-03-09T11:42:27.720Z,0.500
2024-03-09T11:43:22.658Z,0.500
2024-03-09T11:44:19.373Z,0.500
2024-03-09T11:45:28.524Z,0.500
2024-03-09T11:46:25.701Z,0.500
2024-03-09T11:47:20.803Z,0.400
2024-03-09T11:48:28.624Z,0.550
2024-03-09T11:49:50.121Z,0.500
2024-03-09T11:50:23.198Z,0.800
2024-03-09T11:51:23.711Z,0.600
2024-03-09T11:52:30.366Z,0.450
2024-03-09T11:53:26.466Z,0.600
2024-03-09T11:54:21.656Z,0.400
2024-03-09T11:55:30.340Z,0.500
2024-03-09T11:56:22.941Z,0.600
2024-03-09T11:57:22.624Z,0.600
2024-03-09T11:58:27.716Z,0.550
2024-03-09T11:59:28.514Z,0.550
2024-03-09T12:00:26.882Z,0.500
2024-03-09T12:01:20.753Z,0.500
2024-03-09T12:02:21.689Z,0.550
2024-03-09T12:03:26.987Z,0.650
2024-03-09T12:04:23.951Z,0.600
2024-03-09T12:05:29.357Z,0.450
2024-03-09T12:06:29.617Z,0.500
2024-03-09T12:07:26.192Z,0.600
2024-03-09T12:08:21.608Z,0.500
2024-03-09T12:09:24.245Z,0.500
2024-03-09T12:10:31.144Z,0.500
2024-03-09T12:11:24.317Z,0.600
2024-03-09T12:12:32.769Z,0.500
2024-03-09T12:13:28.930Z,0.550
2024-03-09T12:14:24.826Z,0.600
2024-03-09T12:15:20.935Z,0.550
2024-03-09T12:16:27.031Z,0.700
2024-03-09T12:17:26.938Z,0.400
2024-03-09T12:18:22.444Z,0.600
2024-03-09T12:19:21.224Z,0.800
2024-03-09T12:20:22.856Z,0.500
2024-03-09T12:21:24.477Z,0.600
2024-03-09T12:22:21.683Z,0.500
2024-03-09T12:23:32.678Z,0.550
2024-03-09T12:24:29.662Z,0.500
2024-03-09T12:25:22.510Z,0.700
2024-03-09T12:26:25.871Z,0.550
2024-03-09T12:27:25.686Z,0.600
2024-03-09T12:28:24.942Z,0.600
2024-03-09T12:29:21.904Z,0.500
2024-03-09T12:30:34.712Z,0.600
2024-03-09T12:31:19.499Z,0.400
2024-03-09T12:32:24.771Z,0.500
2024-03-09T12:33:33.994Z,0.550
2024-03-09T12:34:22.988Z,0.500
2024-03-09T12:35:25.005Z,0.550
2024-03-09T12:36:20.922Z,0.500
2024-03-09T12:37:32.243Z,0.600
2024-03-09T12:38:23.124Z,0.600
2024-03-09T12:39:26.348Z,0.400
2024-03-09T12:40:35.732Z,0.700
2024-03-09T12:41:30.782Z,0.600
2024-03-09T12:42:20.958Z,0.450
2024-03-09T12:43:20.879Z,0.500
2024-03-09T12:44:33.589Z,0.300
2024-03-09T12:45:26.668Z,0.300
2024-03-09T12:46:24.717Z,0.250
2024-03-09T12:47:36.814Z,0.350
2024-03-09T12:48:34.850Z,0.400
2024-03-09T12:49:24.756Z,0.350
2024-03-09T12:50:21.881Z,0.400
2024-03-09T12:51:32.049Z,0.300
2024-03-09T12:52:29.432Z,0.400
2024-03-09T12:53:22.825Z,0.500
2024-03-09T12:54:32.537Z,0.250
2024-03-09T12:55:29.946Z,0.350
2024-03-09T12:56:25.133Z,0.400
2024-03-09T12:57:21.762Z,0.300
2024-03-09T12:58:30.595Z,0.500
2024-03-09T12:59:29.382Z,0.350
2024-03-09T13:00:22.688Z,0.350
2024-03-09T13:01:33.238Z,0.300
2024-03-09T13:02:30.214Z,0.300
2024-03-09T13:03:30.402Z,0.400
2024-03-09T13:04:28.430Z,0.350
2024-03-09T13:05:31.187Z,0.350
2024-03-09T13:06:28.947Z,0.200